Time;durP1;ratioP1;P1;durP2;ratioP2;P2;SDS_P1;SDS_P2;PMS_P1;PMS_P2;Temp;Humidity;BMP_temperature;BMP_pressure;BME280_temperature;BME280_humidity;BME280_pressure;Samples;Min_cycle;Max_cycle;Signal;HPM_P1;HPM_P2
2021/11/30 00:02:13;;;;;;;22.88;10.18;;;;;;;0.77;100.00;99863.56;7399073;19;20199;-47
2021/11/30 00:04:42;;;;;;;19.38;10.98;;;;;;;0.85;100.00;99857.31;7395391;19;20205;-43
2021/11/30 00:07:12;;;;;;;16.75;9.95;;;;;;;0.78;100.00;99857.69;7397395;19;20167;-44
2021/11/30 00:12:29;;;;;;;15.77;7.25;;;;;;;0.74;100.00;99850.63;7399242;19;20127;-46
2021/11/30 00:14:59;;;;;;;22.25;9.85;;;;;;;0.82;100.00;99836.78;7395329;19;20460;-45
2021/11/30 00:17:28;;;;;;;26.92;12.57;;;;;;;0.81;100.00;99837.56;7397569;19;20155;-49
2021/11/30 00:19:58;;;;;;;23.77;11.85;;;;;;;0.86;100.00;99825.19;7395168;19;20188;-48
2021/11/30 00:22:28;;;;;;;22.48;10.80;;;;;;;0.81;100.00;99817.25;7398868;19;20126;-50
2021/11/30 00:24:58;;;;;;;22.55;8.90;;;;;;;0.80;100.00;99818.94;7394944;19;20200;-44
2021/11/30 00:27:30;;;;;;;25.70;12.63;;;;;;;0.81;100.00;99817.25;7397046;19;20218;-46
2021/11/30 00:29:59;;;;;;;12.90;7.40;;;;;;;0.82;100.00;99824.09;7394712;19;20466;-47
2021/11/30 00:32:29;;;;;;;27.55;12.63;;;;;;;0.86;100.00;99807.41;7401086;19;20197;-48
2021/11/30 00:34:58;;;;;;;14.75;6.85;;;;;;;0.85;100.00;99793.81;7394492;19;20258;-46
2021/11/30 00:37:28;;;;;;;24.50;12.65;;;;;;;0.87;100.00;99786.31;7396754;19;20486;-44
2021/11/30 00:39:57;;;;;;;24.55;11.10;;;;;;;0.86;100.00;99780.34;7394104;19;20470;-44
2021/11/30 00:42:29;;;;;;;25.23;10.90;;;;;;;0.84;100.00;99781.00;7398390;19;20548;-45
2021/11/30 00:45:01;;;;;;;22.58;10.60;;;;;;;0.86;100.00;99774.41;7394626;19;20246;-47
2021/11/30 00:47:31;;;;;;;25.10;10.02;;;;;;;0.86;100.00;99769.31;7396339;19;20166;-45
2021/11/30 00:50:02;;;;;;;15.73;8.00;;;;;;;0.87;100.00;99771.06;7391876;19;20246;-48
2021/11/30 00:52:31;;;;;;;24.27;11.05;;;;;;;0.85;100.00;99753.19;7396981;19;20127;-46
2021/11/30 00:55:01;;;;;;;27.00;13.15;;;;;;;0.92;100.00;99757.00;7393664;19;20253;-46
2021/11/30 00:57:38;;;;;;;20.33;8.65;;;;;;;0.88;100.00;99757.59;7396040;19;20494;-44
2021/11/30 01:00:12;;;;;;;26.02;11.50;;;;;;;0.90;100.00;99749.28;7396067;19;20198;-47
2021/11/30 01:02:42;;;;;;;30.42;14.32;;;;;;;0.95;100.00;99739.41;7405598;19;20511;-49
2021/11/30 01:05:13;;;;;;;29.17;13.77;;;;;;;0.93;100.00;99741.84;7401559;19;20225;-43
2021/11/30 01:07:42;;;;;;;23.30;10.20;;;;;;;0.90;100.00;99726.41;7402491;19;20220;-45
2021/11/30 01:10:13;;;;;;;23.10;9.77;;;;;;;0.90;100.00;99720.44;7401006;19;20186;-43
2021/11/30 01:12:46;;;;;;;24.38;12.40;;;;;;;0.96;100.00;99707.28;7402508;19;20123;-50
2021/11/30 01:15:19;;;;;;;27.48;13.98;;;;;;;1.02;100.00;99705.13;7403226;19;20250;-51
2021/11/30 01:17:49;;;;;;;28.52;14.00;;;;;;;1.03;100.00;99691.63;7402820;19;20451;-45
2021/11/30 01:20:18;;;;;;;27.88;14.05;;;;;;;1.06;100.00;99701.97;7400389;19;20207;-45
2021/11/30 01:22:49;;;;;;;15.93;8.20;;;;;;;1.05;100.00;99684.97;7404837;19;20519;-52
2021/11/30 01:25:18;;;;;;;18.77;8.93;;;;;;;1.06;100.00;99681.66;7401229;19;20197;-45
2021/11/30 01:27:50;;;;;;;28.63;12.80;;;;;;;1.10;100.00;99692.88;7402460;19;20206;-46
2021/11/30 01:30:20;;;;;;;28.15;12.65;;;;;;;1.17;100.00;99679.78;7401462;19;20189;-51
2021/11/30 01:32:50;;;;;;;21.80;9.25;;;;;;;1.18;100.00;99679.88;7405458;19;20174;-52
2021/11/30 01:35:21;;;;;;;26.25;11.90;;;;;;;1.23;100.00;99682.69;7400084;19;20182;-46
2021/11/30 01:37:51;;;;;;;24.95;12.40;;;;;;;1.27;100.00;99676.16;7402179;19;20163;-45
2021/11/30 01:40:24;;;;;;;27.10;12.15;;;;;;;1.32;100.00;99675.66;7398734;19;20234;-42
2021/11/30 01:43:00;;;;;;;19.67;9.02;;;;;;;1.40;100.00;99673.59;7404332;19;20190;-44
2021/11/30 01:45:44;;;;;;;23.63;12.45;;;;;;;1.42;100.00;99672.00;7399377;19;20241;-42
2021/11/30 01:51:01;;;;;;;28.80;10.32;;;;;;;1.56;100.00;99661.78;7399654;19;20486;-43
2021/11/30 01:53:31;;;;;;;21.25;10.48;;;;;;;1.57;100.00;99661.00;7403882;19;20183;-42
2021/11/30 01:56:00;;;;;;;17.98;8.50;;;;;;;1.56;100.00;99646.53;7399123;19;20182;-42
2021/11/30 01:58:32;;;;;;;22.87;10.87;;;;;;;1.58;100.00;99633.13;7403415;19;20486;-43
2021/11/30 02:01:02;;;;;;;16.30;7.93;;;;;;;1.56;100.00;99629.63;7399364;19;20479;-43
2021/11/30 02:03:32;;;;;;;14.45;8.02;;;;;;;1.50;100.00;99613.13;7403491;19;20452;-43
2021/11/30 02:06:01;;;;;;;22.08;10.82;;;;;;;1.48;100.00;99606.28;7398332;19;20238;-44
2021/11/30 02:08:31;;;;;;;21.77;10.65;;;;;;;1.43;100.00;99592.41;7398604;19;20194;-45
2021/11/30 02:11:00;;;;;;;18.38;10.00;;;;;;;1.44;100.00;99584.00;7397525;19;20241;-44
2021/11/30 02:13:33;;;;;;;18.98;11.55;;;;;;;1.40;100.00;99581.19;7403277;19;20197;-48
2021/11/30 02:16:03;;;;;;;15.70;7.43;;;;;;;1.37;100.00;99573.41;7398025;19;20246;-46
2021/11/30 02:18:33;;;;;;;15.40;8.60;;;;;;;1.44;100.00;99543.31;7403246;19;20602;-44
2021/11/30 02:21:07;;;;;;;17.20;9.37;;;;;;;1.39;100.00;99544.72;7398349;19;20253;-42
2021/11/30 02:23:41;;;;;;;14.93;7.88;;;;;;;1.38;100.00;99537.88;7402893;19;20365;-47
2021/11/30 02:26:12;;;;;;;21.73;8.10;;;;;;;1.42;100.00;99518.59;7397064;19;20268;-44
2021/11/30 02:28:44;;;;;;;19.30;9.75;;;;;;;1.41;100.00;99514.31;7402671;19;20183;-46
2021/11/30 02:31:19;;;;;;;14.50;7.80;;;;;;;1.40;100.00;99500.72;7396925;19;20242;-48
2021/11/30 02:33:50;;;;;;;15.40;8.75;;;;;;;1.42;100.00;99494.06;7402540;19;20130;-43
2021/11/30 02:36:26;;;;;;;19.02;9.65;;;;;;;1.40;100.00;99475.31;7396637;19;20196;-45
2021/11/30 02:38:57;;;;;;;13.88;6.80;;;;;;;1.45;100.00;99478.97;7405403;19;20206;-45
2021/11/30 02:41:27;;;;;;;12.82;7.57;;;;;;;1.47;100.00;99477.41;7397955;19;20187;-46
2021/11/30 02:43:58;;;;;;;13.82;6.93;;;;;;;1.45;100.00;99466.25;7402300;19;20175;-44
2021/11/30 02:46:32;;;;;;;14.90;8.48;;;;;;;1.47;100.00;99464.72;7396400;19;20204;-43
2021/11/30 02:49:04;;;;;;;11.20;6.43;;;;;;;1.52;100.00;99447.16;7402088;19;20133;-43
2021/11/30 02:51:38;;;;;;;21.95;9.10;;;;;;;1.51;100.00;99445.41;7397711;19;20419;-44
2021/11/30 02:54:09;;;;;;;10.38;5.93;;;;;;;1.50;100.00;99419.91;7401918;19;20179;-43
2021/11/30 02:56:41;;;;;;;11.05;5.50;;;;;;;1.55;100.00;99418.50;7396189;19;20258;-44
2021/11/30 02:59:11;;;;;;;16.35;8.55;;;;;;;1.59;100.00;99400.09;7401566;19;20127;-46
2021/11/30 03:01:43;;;;;;;15.43;8.18;;;;;;;1.52;100.00;99410.69;7397452;19;20186;-45
2021/11/30 03:04:13;;;;;;;13.30;6.78;;;;;;;1.54;100.00;99389.63;7401204;19;20160;-44
2021/11/30 03:06:45;;;;;;;13.27;7.68;;;;;;;1.66;100.00;99386.94;7395952;19;20195;-43
2021/11/30 03:09:15;;;;;;;15.25;7.38;;;;;;;1.57;100.00;99386.41;7401187;19;20119;-42
2021/11/30 03:11:45;;;;;;;11.23;6.93;;;;;;;1.60;100.00;99384.03;7399049;19;20671;-42
2021/11/30 03:14:15;;;;;;;9.77;4.80;;;;;;;1.63;100.00;99371.47;7400974;19;20138;-43
2021/11/30 03:16:45;;;;;;;15.45;5.75;;;;;;;1.57;100.00;99358.44;7398843;19;20451;-45
2021/11/30 03:19:17;;;;;;;12.80;6.05;;;;;;;1.55;100.00;99362.56;7401000;19;20407;-44
2021/11/30 03:21:49;;;;;;;8.47;5.20;;;;;;;1.60;100.00;99336.59;7396377;19;20182;-51
2021/11/30 03:24:18;;;;;;;8.82;6.63;;;;;;;1.55;100.00;99321.88;7399511;19;20385;-47
2021/11/30 03:26:48;;;;;;;11.18;6.00;;;;;;;1.52;100.00;99314.06;7395085;19;20204;-45
2021/11/30 03:29:18;;;;;;;11.07;5.45;;;;;;;1.48;100.00;99298.66;7400480;19;20129;-45
2021/11/30 03:31:59;;;;;;;16.73;5.32;;;;;;;1.51;100.00;99284.34;7400700;19;20186;-41
2021/11/30 03:34:26;;;;;;;7.30;4.28;;;;;;;1.47;100.00;99284.22;7400265;19;20521;-46
2021/11/30 03:36:59;;;;;;;10.80;5.43;;;;;;;1.47;100.00;99279.13;7398600;19;20201;-44
2021/11/30 03:39:29;;;;;;;10.82;5.47;;;;;;;1.44;100.00;99271.31;7400311;19;20178;-44
2021/11/30 03:42:00;;;;;;;13.63;6.68;;;;;;;1.43;100.00;99250.91;7399382;19;20181;-44
2021/11/30 03:44:30;;;;;;;9.32;5.57;;;;;;;1.39;100.00;99246.44;7400225;19;20120;-47
2021/11/30 03:47:00;;;;;;;11.98;7.10;;;;;;;1.44;100.00;99238.28;7397807;19;20199;-42
2021/11/30 03:49:30;;;;;;;13.35;8.55;;;;;;;1.43;100.00;99230.59;7400153;19;20123;-43
2021/11/30 03:52:02;;;;;;;14.15;6.45;;;;;;;1.41;100.00;99220.31;7398970;19;20181;-47
2021/11/30 03:54:32;;;;;;;8.65;5.75;;;;;;;1.40;100.00;99226.22;7397678;19;20191;-47
2021/11/30 03:57:01;;;;;;;10.82;7.22;;;;;;;1.38;100.00;99209.97;7397630;19;20233;-43
2021/11/30 03:59:30;;;;;;;13.07;7.10;;;;;;;1.35;100.00;99192.03;7399747;19;20122;-49
2021/11/30 04:02:00;;;;;;;13.95;7.30;;;;;;;1.38;100.00;99181.16;7399077;19;20180;-44
2021/11/30 04:04:34;;;;;;;10.10;7.13;;;;;;;1.40;100.00;99177.91;7399340;19;20127;-45
2021/11/30 04:07:06;;;;;;;12.52;7.28;;;;;;;1.36;100.00;99165.81;7397298;19;20884;-43
2021/11/30 04:09:36;;;;;;;13.60;7.30;;;;;;;1.41;100.00;99161.88;7395825;19;20443;-42
2021/11/30 04:12:08;;;;;;;13.73;7.18;;;;;;;1.35;100.00;99133.59;7398601;19;20138;-46
2021/11/30 04:14:37;;;;;;;10.45;6.90;;;;;;;1.33;100.00;99113.16;7395563;19;20154;-47
2021/11/30 04:17:07;;;;;;;11.38;6.85;;;;;;;1.34;100.00;99119.13;7397252;19;20159;-48
2021/11/30 04:19:37;;;;;;;9.52;6.50;;;;;;;1.35;100.00;99103.94;7395116;19;20372;-44
2021/11/30 04:22:09;;;;;;;9.93;5.57;;;;;;;1.33;100.00;99107.22;7398461;19;20440;-47
2021/11/30 04:24:40;;;;;;;7.93;5.93;;;;;;;1.36;100.00;99089.56;7395487;19;20525;-43
2021/11/30 04:27:09;;;;;;;8.32;5.90;;;;;;;1.34;100.00;99076.78;7396779;19;20214;-46
2021/11/30 04:29:42;;;;;;;8.88;5.72;;;;;;;1.33;100.00;99077.59;7395362;19;20179;-52
2021/11/30 04:32:11;;;;;;;10.18;5.05;;;;;;;1.38;100.00;99075.28;7398239;19;20134;-46
2021/11/30 04:34:41;;;;;;;7.38;4.63;;;;;;;1.35;100.00;99063.28;7399352;19;20187;-43
2021/11/30 04:37:13;;;;;;;11.07;5.47;;;;;;;1.40;100.00;99066.06;7403513;19;20218;-45
2021/11/30 04:39:43;;;;;;;11.18;6.35;;;;;;;1.42;100.00;99051.78;7402622;19;20122;-44
2021/11/30 04:42:12;;;;;;;4.43;3.33;;;;;;;1.44;100.00;99052.72;7405383;19;20123;-44
2021/11/30 04:44:51;;;;;;;8.10;5.50;;;;;;;1.44;100.00;99032.38;7402543;19;20135;-42
2021/11/30 04:47:20;;;;;;;8.00;4.30;;;;;;;1.46;100.00;99038.44;7406747;19;20159;-48
2021/11/30 04:49:57;;;;;;;9.38;6.60;;;;;;;1.49;100.00;99037.72;7401894;19;20128;-44
2021/11/30 04:52:30;;;;;;;9.90;6.22;;;;;;;1.53;100.00;99031.13;7405493;19;20126;-45
2021/11/30 04:54:59;;;;;;;10.52;6.80;;;;;;;1.57;100.00;99007.56;7401691;19;20194;-43
2021/11/30 04:57:29;;;;;;;11.27;5.93;;;;;;;1.65;100.00;99007.97;7403184;19;20159;-44
2021/11/30 04:59:59;;;;;;;10.60;6.03;;;;;;;1.62;100.00;99006.13;7401583;19;20453;-44
2021/11/30 05:02:28;;;;;;;13.63;6.85;;;;;;;1.65;100.00;99008.84;7405283;19;20140;-43
2021/11/30 05:04:58;;;;;;;8.80;5.60;;;;;;;1.67;100.00;98991.97;7401104;19;20251;-44
2021/11/30 05:07:30;;;;;;;12.05;7.68;;;;;;;1.68;100.00;98993.72;7402755;19;20162;-43
2021/11/30 05:09:59;;;;;;;8.18;3.92;;;;;;;1.71;100.00;98995.56;7401050;19;20250;-45
2021/11/30 05:12:29;;;;;;;11.37;7.00;;;;;;;1.76;100.00;98978.84;7404902;19;20175;-47
2021/11/30 05:14:58;;;;;;;15.20;8.03;;;;;;;1.79;100.00;98970.50;7399238;19;20466;-49
2021/11/30 05:17:28;;;;;;;11.25;7.05;;;;;;;1.83;100.00;98952.91;7402781;19;20883;-45
2021/11/30 05:19:57;;;;;;;14.70;9.30;;;;;;;1.86;100.00;98957.28;7402635;19;20186;-46
2021/11/30 05:22:29;;;;;;;19.17;8.40;;;;;;;1.90;100.00;98933.75;7404765;19;20126;-46
2021/11/30 05:25:19;;;;;;;14.00;6.20;;;;;;;1.96;100.00;98944.19;7400916;19;20426;-46
2021/11/30 05:27:49;;;;;;;8.25;5.55;;;;;;;2.05;100.00;98948.81;7406864;19;20230;-43
2021/11/30 05:30:20;;;;;;;12.35;7.65;;;;;;;2.10;100.00;98952.47;7400259;19;20176;-43
2021/11/30 05:32:50;;;;;;;12.77;7.70;;;;;;;2.12;100.00;98939.81;7406603;19;20134;-46
2021/11/30 05:35:20;;;;;;;12.10;7.40;;;;;;;2.19;100.00;98931.66;7400131;19;20419;-44
2021/11/30 05:37:52;;;;;;;11.65;6.90;;;;;;;2.23;100.00;98923.38;7402288;19;20431;-45
2021/11/30 05:40:21;;;;;;;10.90;7.43;;;;;;;2.23;100.00;98920.84;7399237;19;21012;-47
2021/11/30 05:42:50;;;;;;;8.88;5.65;;;;;;;2.25;100.00;98915.81;7404279;19;20456;-47
2021/11/30 05:45:20;;;;;;;9.80;5.00;;;;;;;2.27;100.00;98920.16;7398611;19;20187;-48
2021/11/30 05:47:50;;;;;;;11.47;6.97;;;;;;;2.29;100.00;98905.84;7403291;19;20431;-48
2021/11/30 05:50:20;;;;;;;10.70;6.60;;;;;;;2.34;100.00;98907.69;7399820;19;20419;-47
2021/11/30 05:52:52;;;;;;;11.67;6.80;;;;;;;2.38;100.00;98912.13;7404003;19;20388;-47
2021/11/30 05:55:21;;;;;;;11.07;6.83;;;;;;;2.41;100.00;98891.94;7395347;19;20423;-49
2021/11/30 05:57:51;;;;;;;11.20;5.73;;;;;;;2.45;100.00;98890.38;7401693;19;20564;-45
2021/11/30 06:00:21;;;;;;;10.90;5.10;;;;;;;2.52;100.00;98890.69;7399353;19;20419;-48
2021/11/30 06:03:01;;;;;;;18.97;7.80;;;;;;;2.58;100.00;98894.31;7403426;19;20460;-52
2021/11/30 06:05:32;;;;;;;15.13;8.07;;;;;;;2.54;100.00;98878.94;7398877;19;20432;-47
2021/11/30 06:08:05;;;;;;;10.57;6.17;;;;;;;2.56;100.00;98884.06;7401588;19;21321;-46
2021/11/30 06:10:34;;;;;;;14.83;8.23;;;;;;;2.63;100.00;98890.31;7398872;19;20419;-47
2021/11/30 06:13:04;;;;;;;16.03;9.20;;;;;;;2.70;100.00;98916.13;7403325;19;20400;-45
2021/11/30 06:15:34;;;;;;;8.37;5.00;;;;;;;2.74;100.00;98914.59;7396792;19;20495;-46
2021/11/30 06:18:03;;;;;;;8.30;5.33;;;;;;;2.78;100.00;98903.69;7400928;19;20434;-47
2021/11/30 06:20:34;;;;;;;11.90;5.50;;;;;;;2.83;100.00;98902.22;7398733;19;20682;-48
2021/11/30 06:23:06;;;;;;;7.47;4.40;;;;;;;2.86;100.00;98890.44;7403034;19;20448;-48
2021/11/30 06:25:36;;;;;;;6.10;3.47;;;;;;;2.91;100.00;98873.66;7397869;19;20478;-48
2021/11/30 06:28:06;;;;;;;7.67;5.60;;;;;;;2.97;100.00;98871.38;7400518;19;20937;-50
2021/11/30 06:30:35;;;;;;;4.90;3.40;;;;;;;2.99;100.00;98876.53;7397913;19;20411;-47
2021/11/30 06:33:05;;;;;;;6.57;3.63;;;;;;;3.05;100.00;98877.69;7402494;19;20412;-48
2021/11/30 06:35:36;;;;;;;5.40;3.27;;;;;;;3.09;100.00;98884.63;7396643;19;20479;-51
2021/11/30 06:38:09;;;;;;;6.00;3.50;;;;;;;3.12;100.00;98883.88;7400469;19;20895;-50
2021/11/30 06:40:38;;;;;;;9.03;5.83;;;;;;;3.14;100.00;98889.06;7396854;19;20425;-50
2021/11/30 06:43:08;;;;;;;7.03;4.90;;;;;;;3.20;100.00;98899.50;7402140;19;20859;-49
2021/11/30 06:45:37;;;;;;;8.30;4.27;;;;;;;3.23;100.00;98884.34;7397160;19;20423;-52
2021/11/30 06:48:07;;;;;;;10.40;6.73;;;;;;;3.32;100.00;98883.84;7400740;19;20499;-53
2021/11/30 06:50:37;;;;;;;9.10;5.60;;;;;;;3.38;100.00;98897.72;7397694;19;20706;-55
2021/11/30 06:53:09;;;;;;;8.70;4.80;;;;;;;3.41;100.00;98901.19;7401760;19;20388;-52
2021/11/30 06:55:38;;;;;;;4.30;3.30;;;;;;;3.45;100.00;98887.75;7395919;19;20415;-53
2021/11/30 06:58:08;;;;;;;7.30;4.40;;;;;;;3.51;100.00;98888.00;7396525;19;20419;-49
2021/11/30 07:00:38;;;;;;;11.30;6.13;;;;;;;3.60;100.00;98870.50;7396498;19;20491;-50
2021/11/30 07:03:08;;;;;;;14.37;6.90;;;;;;;3.66;100.00;98867.34;7401474;19;20379;-47
2021/11/30 07:05:41;;;;;;;13.07;7.27;;;;;;;3.74;100.00;98880.41;7395031;19;20443;-51
2021/11/30 07:08:19;;;;;;;11.80;7.23;;;;;;;3.79;100.00;98873.78;7399146;19;20443;-53
2021/11/30 07:10:51;;;;;;;12.20;6.53;;;;;;;3.86;100.00;98875.78;7397205;19;20427;-53
2021/11/30 07:13:26;;;;;;;16.10;6.43;;;;;;;3.89;100.00;98875.00;7401389;19;20398;-47
2021/11/30 07:15:57;;;;;;;13.10;6.10;;;;;;;3.94;100.00;98888.81;7396667;19;20422;-53
2021/11/30 07:18:28;;;;;;;16.27;7.10;;;;;;;4.02;100.00;98868.69;7400857;19;20383;-54
2021/11/30 07:21:00;;;;;;;8.03;4.50;;;;;;;3.99;100.00;98871.16;7399518;19;20510;-52
2021/11/30 07:23:32;;;;;;;27.77;6.70;;;;;;;4.10;100.00;98874.97;7400831;19;20387;-49
2021/11/30 07:26:02;;;;;;;15.87;4.80;;;;;;;4.15;100.00;98863.25;7395844;19;20415;-47
2021/11/30 07:28:34;;;;;;;15.40;5.10;;;;;;;4.15;100.00;98860.69;7404152;19;20867;-49
2021/11/30 07:31:07;;;;;;;17.73;5.40;;;;;;;4.19;100.00;98860.00;7396376;19;20415;-49
2021/11/30 07:33:38;;;;;;;12.77;4.30;;;;;;;4.21;100.00;98867.72;7400568;19;20404;-54
2021/11/30 07:36:09;;;;;;;16.30;4.47;;;;;;;4.25;100.00;98864.44;7395215;19;20425;-55
2021/11/30 07:38:42;;;;;;;15.43;3.93;;;;;;;4.25;100.00;98873.81;7400099;19;20466;-52
2021/11/30 07:41:12;;;;;;;20.43;4.93;;;;;;;4.27;100.00;98867.94;7396401;19;20446;-51
2021/11/30 07:43:42;;;;;;;10.60;3.30;;;;;;;4.25;100.00;98848.28;7400178;19;20455;-54
2021/11/30 07:46:11;;;;;;;13.90;3.90;;;;;;;4.20;100.00;98858.28;7392890;19;20449;-54
2021/11/30 07:48:41;;;;;;;35.03;12.67;;;;;;;4.27;100.00;98861.97;7399832;19;20380;-46
2021/11/30 07:51:15;;;;;;;16.77;3.20;;;;;;;4.30;100.00;98864.59;7395880;19;20420;-46
2021/11/30 07:53:47;;;;;;;24.43;4.17;;;;;;;4.45;100.00;98857.53;7400134;19;20384;-50
2021/11/30 07:56:17;;;;;;;19.03;3.60;;;;;;;4.58;100.00;98852.84;7394130;19;20826;-55
2021/11/30 07:58:46;;;;;;;15.43;2.73;;;;;;;4.45;100.00;98852.41;7402194;19;20463;-45
2021/11/30 08:01:16;;;;;;;19.80;3.83;;;;;;;4.49;100.00;98853.38;7395608;19;20422;-47
2021/11/30 08:03:47;;;;;;;17.57;3.50;;;;;;;4.57;100.00;98846.84;7399682;19;20372;-51
2021/11/30 08:06:16;;;;;;;18.67;3.20;;;;;;;4.54;100.00;98856.09;7394415;19;20437;-48
2021/11/30 08:08:50;;;;;;;15.83;4.80;;;;;;;4.58;100.00;98843.50;7397977;19;20463;-46
2021/11/30 08:11:20;;;;;;;19.80;3.03;;;;;;;4.52;100.00;98857.75;7395503;19;20440;-47
2021/11/30 08:13:49;;;;;;;32.47;5.80;;;;;;;4.68;100.00;98847.22;7399440;19;20405;-47
2021/11/30 08:16:24;;;;;;;21.23;3.30;;;;;;;4.62;100.00;98843.59;7394126;19;20489;-47
2021/11/30 08:18:53;;;;;;;46.20;4.00;;;;;;;4.55;100.00;98832.28;7398840;19;20396;-48
2021/11/30 08:21:23;;;;;;;31.47;5.80;;;;;;;4.49;100.00;98840.63;7395177;19;20952;-50
2021/11/30 08:23:55;;;;;;;24.73;3.90;;;;;;;4.51;100.00;98838.97;7399202;19;20468;-49
2021/11/30 08:26:24;;;;;;;29.33;3.97;;;;;;;4.50;100.00;98836.41;7393297;19;20425;-49
2021/11/30 08:28:54;;;;;;;24.40;3.73;;;;;;;4.44;100.00;98837.91;7398740;19;20895;-48
2021/11/30 08:31:23;;;;;;;35.93;3.87;;;;;;;4.52;100.00;98837.31;7394812;19;20419;-50
2021/11/30 08:33:53;;;;;;;28.80;3.33;;;;;;;4.49;100.00;98842.28;7398842;19;20674;-54
2021/11/30 08:36:23;;;;;;;20.97;3.23;;;;;;;4.50;100.00;98850.03;7393717;19;20495;-48
2021/11/30 08:38:55;;;;;;;22.57;2.93;;;;;;;4.48;100.00;98853.31;7399466;19;20388;-50
2021/11/30 08:41:25;;;;;;;13.57;3.40;;;;;;;4.49;100.00;98873.81;7393931;19;20703;-48
2021/11/30 08:43:54;;;;;;;22.53;3.53;;;;;;;4.41;100.00;98870.97;7398557;19;20394;-51
2021/11/30 08:46:44;;;;;;;12.90;3.80;;;;;;;4.31;100.00;98869.78;7392966;19;20426;-48
2021/11/30 08:49:13;;;;;;;14.13;2.53;;;;;;;4.30;100.00;98864.59;7398343;19;20855;-49
2021/11/30 08:51:43;;;;;;;13.00;2.30;;;;;;;4.29;100.00;98855.22;7394161;19;20421;-48
2021/11/30 08:54:15;;;;;;;17.77;2.70;;;;;;;4.31;100.00;98854.47;7398443;19;20447;-46
2021/11/30 08:56:45;;;;;;;21.40;3.23;;;;;;;4.33;100.00;98862.19;7390703;19;20498;-48
2021/11/30 08:59:14;;;;;;;9.33;2.53;;;;;;;4.33;100.00;98873.25;7398240;19;20459;-46
2021/11/30 09:01:44;;;;;;;13.37;1.83;;;;;;;4.35;100.00;98855.44;7394295;19;20483;-49
2021/11/30 09:04:14;;;;;;;13.07;2.07;;;;;;;4.35;100.00;98880.97;7398088;19;20404;-47
2021/11/30 09:06:44;;;;;;;17.13;3.50;;;;;;;4.44;100.00;98877.88;7392065;19;20433;-47
2021/11/30 09:09:16;;;;;;;10.67;2.10;;;;;;;4.56;100.00;98880.88;7397736;19;20469;-48
2021/11/30 09:12:07;;;;;;;38.57;12.13;;;;;;;4.91;100.00;98877.84;7396883;19;20422;-50
2021/11/30 09:14:36;;;;;;;18.00;2.57;;;;;;;4.82;100.00;98886.03;7394194;19;20387;-50
2021/11/30 09:17:06;;;;;;;13.67;2.13;;;;;;;4.65;100.00;98895.69;7394152;19;20426;-48
2021/11/30 09:19:36;;;;;;;21.27;2.13;;;;;;;4.63;100.00;98892.22;7394012;19;20455;-45
2021/11/30 09:22:10;;;;;;;14.87;3.47;;;;;;;4.53;100.00;98895.22;7404327;19;20411;-45
2021/11/30 09:24:42;;;;;;;16.57;2.13;;;;;;;4.60;100.00;98892.09;7400428;19;20451;-44
2021/11/30 09:27:11;;;;;;;15.27;2.80;;;;;;;4.60;100.00;98889.53;7405247;19;20429;-47
2021/11/30 09:29:41;;;;;;;11.87;2.10;;;;;;;4.61;100.00;98892.97;7400945;19;20456;-53
2021/11/30 09:32:11;;;;;;;17.77;2.13;;;;;;;4.61;100.00;98891.25;7404169;19;20889;-44
2021/11/30 09:35:02;;;;;;;19.83;4.27;;;;;;;4.67;100.00;98894.03;7400092;19;20404;-46
2021/11/30 09:37:34;;;;;;;12.80;2.03;;;;;;;4.72;100.00;98896.78;7402146;19;20443;-46
2021/11/30 09:40:08;;;;;;;21.57;2.90;;;;;;;4.77;100.00;98887.56;7399339;19;20403;-45
2021/11/30 09:42:38;;;;;;;17.53;3.37;;;;;;;4.81;100.00;98888.53;7404486;19;20769;-44
2021/11/30 09:45:11;;;;;;;18.70;2.30;;;;;;;4.80;100.00;98899.59;7399685;19;20411;-47
2021/11/30 09:47:41;;;;;;;17.67;2.40;;;;;;;4.85;100.00;98903.19;7405941;19;20444;-46
2021/11/30 09:50:13;;;;;;;13.77;2.40;;;;;;;4.89;100.00;98902.47;7401866;19;20931;-44
2021/11/30 09:52:43;;;;;;;18.13;3.03;;;;;;;4.91;100.00;98893.16;7403937;19;20904;-47
2021/11/30 09:55:17;;;;;;;16.63;3.13;;;;;;;4.96;100.00;98900.97;7399392;19;20411;-51
2021/11/30 09:57:47;;;;;;;20.80;3.10;;;;;;;4.99;100.00;98899.41;7401731;19;20483;-46
2021/11/30 10:00:18;;;;;;;13.73;2.20;;;;;;;5.00;100.00;98893.50;7399615;19;20427;-48
2021/11/30 10:02:59;;;;;;;20.70;2.60;;;;;;;5.04;100.00;98906.38;7403254;19;20402;-51
2021/11/30 10:05:29;;;;;;;14.03;2.93;;;;;;;5.06;100.00;98897.06;7398973;19;20415;-48
2021/11/30 10:08:00;;;;;;;19.70;3.17;;;;;;;5.04;100.00;98893.59;7401634;19;20432;-50
2021/11/30 10:10:35;;;;;;;28.00;3.93;;;;;;;5.11;100.00;98916.88;7399370;19;20899;-48
2021/11/30 10:13:14;;;;;;;20.73;2.70;;;;;;;5.12;100.00;98933.06;7403722;19;20391;-47
2021/11/30 10:16:01;;;;;;;14.40;2.93;;;;;;;5.15;100.00;98930.63;7398054;19;20490;-46
2021/11/30 10:18:32;;;;;;;18.80;3.60;;;;;;;5.12;100.00;98926.28;7403217;19;20420;-46
2021/11/30 10:21:20;;;;;;;25.30;4.00;;;;;;;5.16;100.00;98952.81;7398641;19;20419;-47
2021/11/30 10:23:52;;;;;;;19.07;3.27;;;;;;;5.10;100.00;98939.81;7403019;19;20390;-46
2021/11/30 10:26:27;;;;;;;25.27;3.20;;;;;;;5.08;100.00;98956.81;7397584;19;20496;-45
2021/11/30 10:28:57;;;;;;;13.07;2.73;;;;;;;5.07;100.00;98953.34;7402735;19;20392;-49
2021/11/30 10:31:32;;;;;;;11.30;2.87;;;;;;;5.07;100.00;98976.38;7398378;19;20475;-49
2021/11/30 10:34:10;;;;;;;20.23;3.43;;;;;;;5.05;100.00;98979.69;7402745;19;20414;-49
2021/11/30 10:36:48;;;;;;;18.77;3.03;;;;;;;5.02;100.00;98977.03;7396612;19;20437;-48
2021/11/30 10:39:18;;;;;;;22.90;3.07;;;;;;;5.03;100.00;98968.53;7402147;19;20709;-46
2021/11/30 10:41:51;;;;;;;11.40;2.50;;;;;;;5.05;100.00;98982.25;7398082;19;20428;-46
2021/11/30 10:44:30;;;;;;;24.07;2.97;;;;;;;5.06;100.00;98991.66;7402324;19;20379;-52
2021/11/30 10:47:11;;;;;;;14.57;2.63;;;;;;;5.04;100.00;99001.84;7399315;19;20476;-52
2021/11/30 10:49:50;;;;;;;13.53;2.03;;;;;;;5.05;100.00;99010.38;7401615;19;20412;-48
2021/11/30 10:52:22;;;;;;;17.50;2.47;;;;;;;5.01;100.00;99034.94;7402082;19;20397;-50
2021/11/30 10:54:52;;;;;;;11.87;2.70;;;;;;;4.94;100.00;99013.41;7398091;19;20495;-48
2021/11/30 10:57:32;;;;;;;14.87;3.63;;;;;;;4.87;100.00;99001.19;7399465;19;20499;-45
2021/11/30 11:00:19;;;;;;;18.90;3.00;;;;;;;4.80;100.00;99005.25;7397887;19;20423;-50
2021/11/30 11:02:53;;;;;;;18.90;2.57;;;;;;;4.80;100.00;99006.91;7401533;19;20387;-50
2021/11/30 11:05:26;;;;;;;21.27;2.87;;;;;;;4.76;100.00;99015.28;7396538;19;20419;-45
2021/11/30 11:08:09;;;;;;;13.53;2.90;;;;;;;4.89;100.00;99012.38;7399808;19;20866;-45
2021/11/30 11:10:41;;;;;;;24.33;4.00;;;;;;;4.97;100.00;99035.66;7397207;19;20488;-46
2021/11/30 11:13:35;;;;;;;32.37;8.70;;;;;;;4.97;100.00;99023.75;7401081;19;20471;-44
2021/11/30 11:16:07;;;;;;;21.13;3.17;;;;;;;5.00;100.00;99007.66;7395765;19;20406;-44
2021/11/30 11:18:38;;;;;;;19.00;3.43;;;;;;;5.04;100.00;99008.63;7402913;19;20404;-45
2021/11/30 11:21:14;;;;;;;25.77;4.77;;;;;;;5.18;100.00;99011.69;7396030;19;20505;-49
2021/11/30 11:23:45;;;;;;;16.23;3.70;;;;;;;5.17;100.00;99017.63;7400833;19;20387;-49
2021/11/30 11:26:33;;;;;;;19.60;4.47;;;;;;;5.14;100.00;99008.16;7396169;19;20638;-44
2021/11/30 11:29:09;;;;;;;17.83;2.77;;;;;;;5.10;100.00;99022.50;7400580;19;20384;-45
2021/11/30 11:31:39;;;;;;;12.40;3.10;;;;;;;5.07;100.00;99039.44;7396542;19;20424;-49
2021/11/30 11:34:11;;;;;;;22.70;3.67;;;;;;;5.09;100.00;99053.13;7400729;19;20379;-49
2021/11/30 11:36:44;;;;;;;24.57;3.27;;;;;;;5.09;100.00;99030.13;7395047;19;20419;-50
2021/11/30 11:39:17;;;;;;;32.63;3.43;;;;;;;5.04;100.00;99036.75;7399976;19;20447;-46
2021/11/30 11:41:48;;;;;;;25.77;2.30;;;;;;;5.07;100.00;99039.44;7396316;19;20419;-49
2021/11/30 11:44:20;;;;;;;22.20;3.77;;;;;;;5.11;100.00;99038.69;7398853;19;20754;-45
2021/11/30 11:46:50;;;;;;;17.37;2.53;;;;;;;5.14;100.00;99039.69;7397491;19;20910;-47
2021/11/30 11:49:22;;;;;;;12.57;2.70;;;;;;;5.16;100.00;99034.63;7399942;19;20389;-46
2021/11/30 11:51:53;;;;;;;9.00;2.50;;;;;;;5.15;100.00;99050.78;7399005;19;20444;-50